Time;durP1;ratioP1;P1;durP2;ratioP2;P2;SDS_P1;SDS_P2;PMS_P1;PMS_P2;Temp;Humidity;BMP_temperature;BMP_pressure;BME280_temperature;BME280_humidity;BME280_pressure;Samples;Min_cycle;Max_cycle;Signal;HPM_P1;HPM_P2
2023/11/08 00:00:37;;;;;;;82.47;55.13;;;;;;;;;;5014605;28;20435;-60
2023/11/08 00:03:04;;;;;;;89.68;56.25;;;;;;;;;;5017424;28;20041;-60
2023/11/08 00:05:31;;;;;;;83.45;52.00;;;;;;;;;;5048977;28;20098;-60
2023/11/08 00:07:57;;;;;;;78.25;51.67;;;;;;;;;;5035310;28;20029;-60
2023/11/08 00:10:23;;;;;;;88.18;56.00;;;;;;;;;;5037886;28;20063;-60
2023/11/08 00:12:50;;;;;;;74.65;50.50;;;;;;;;;;5034869;28;20025;-60
2023/11/08 00:15:16;;;;;;;75.47;51.15;;;;;;;;;;5048377;28;20033;-60
2023/11/08 00:17:42;;;;;;;80.27;51.77;;;;;;;;;;5035331;28;20112;-60
2023/11/08 00:20:09;;;;;;;80.63;53.05;;;;;;;;;;5043075;28;20415;-60
2023/11/08 00:22:36;;;;;;;93.75;56.08;;;;;;;;;;5042213;28;20041;-60
2023/11/08 00:25:02;;;;;;;86.63;54.47;;;;;;;;;;5052508;28;20394;-60
2023/11/08 00:27:28;;;;;;;77.45;50.90;;;;;;;;;;5039303;28;20028;-60
2023/11/08 00:29:54;;;;;;;72.18;48.33;;;;;;;;;;5015982;28;20025;-60
2023/11/08 00:32:21;;;;;;;71.78;49.97;;;;;;;;;;5027190;28;20029;-60
2023/11/08 00:34:51;;;;;;;71.00;48.88;;;;;;;;;;5022971;28;20032;-60
2023/11/08 00:37:21;;;;;;;72.10;49.17;;;;;;;;;;5052737;28;20040;-60
2023/11/08 00:39:48;;;;;;;68.43;48.63;;;;;;;;;;5052547;28;20447;-60
2023/11/08 00:42:14;;;;;;;70.45;47.03;;;;;;;;;;5027925;28;20033;-60
2023/11/08 00:44:41;;;;;;;70.65;46.75;;;;;;;;;;5033087;28;20030;-60
2023/11/08 00:47:08;;;;;;;74.00;50.50;;;;;;;;;;5049753;28;20104;-60
2023/11/08 00:49:35;;;;;;;72.85;47.72;;;;;;;;;;5038083;28;20048;-60
2023/11/08 00:52:01;;;;;;;74.40;48.80;;;;;;;;;;5052295;28;20096;-60
2023/11/08 00:54:27;;;;;;;69.63;47.08;;;;;;;;;;5018367;28;20438;-60
2023/11/08 00:56:54;;;;;;;69.05;46.17;;;;;;;;;;5032012;28;20055;-60
2023/11/08 00:59:20;;;;;;;63.40;44.80;;;;;;;;;;5040461;28;20044;-60
2023/11/08 01:01:48;;;;;;;61.38;43.75;;;;;;;;;;5028551;28;20310;-60
2023/11/08 01:04:14;;;;;;;64.25;44.28;;;;;;;;;;5013883;28;20029;-60
2023/11/08 01:06:41;;;;;;;69.20;45.03;;;;;;;;;;5027780;28;20021;-60
2023/11/08 01:09:08;;;;;;;61.47;43.42;;;;;;;;;;5030379;28;20495;-60
2023/11/08 01:11:35;;;;;;;57.40;40.13;;;;;;;;;;5027692;28;20399;-60
2023/11/08 01:14:02;;;;;;;44.20;33.92;;;;;;;;;;5026682;28;20062;-60
2023/11/08 01:16:29;;;;;;;62.35;42.42;;;;;;;;;;5054912;28;20082;-60
2023/11/08 01:18:55;;;;;;;63.80;43.60;;;;;;;;;;5061391;28;20119;-58
2023/11/08 01:21:22;;;;;;;66.03;45.60;;;;;;;;;;5034476;28;20036;-60
2023/11/08 01:23:51;;;;;;;66.18;45.65;;;;;;;;;;5052361;28;20044;-60
2023/11/08 01:26:17;;;;;;;68.32;47.97;;;;;;;;;;5033020;28;20472;-60
2023/11/08 01:28:45;;;;;;;66.97;44.65;;;;;;;;;;5050836;28;20133;-60
2023/11/08 01:31:11;;;;;;;67.60;46.72;;;;;;;;;;5027857;28;20081;-60
2023/11/08 01:33:37;;;;;;;67.75;43.67;;;;;;;;;;5070792;28;20090;-60
2023/11/08 01:36:05;;;;;;;60.35;44.42;;;;;;;;;;5060420;28;20048;-60
2023/11/08 01:38:32;;;;;;;62.28;44.20;;;;;;;;;;5028642;28;20083;-60
2023/11/08 01:40:58;;;;;;;68.03;46.28;;;;;;;;;;5020482;28;20560;-60
2023/11/08 01:43:28;;;;;;;66.97;47.08;;;;;;;;;;5038568;28;20033;-60
2023/11/08 01:46:14;;;;;;;63.10;43.50;;;;;;;;;;5015519;28;20411;-60
2023/11/08 01:48:42;;;;;;;75.68;48.50;;;;;;;;;;5032550;28;20042;-60
2023/11/08 01:51:09;;;;;;;75.53;48.83;;;;;;;;;;4998773;28;20025;-60
2023/11/08 01:53:36;;;;;;;71.63;47.28;;;;;;;;;;5036967;28;20397;-60
2023/11/08 01:56:03;;;;;;;68.85;46.38;;;;;;;;;;5041969;28;20036;-60
2023/11/08 01:58:31;;;;;;;62.50;45.33;;;;;;;;;;5030455;28;20104;-60
2023/11/08 02:00:58;;;;;;;66.00;44.05;;;;;;;;;;5027840;28;20025;-60
2023/11/08 02:03:27;;;;;;;69.68;43.75;;;;;;;;;;5035282;28;20033;-60
2023/11/08 02:05:55;;;;;;;72.43;49.45;;;;;;;;;;5025864;28;20505;-60
2023/11/08 02:08:21;;;;;;;67.07;46.45;;;;;;;;;;5019382;28;20057;-60
2023/11/08 02:10:48;;;;;;;69.88;47.72;;;;;;;;;;4998667;28;20017;-60
2023/11/08 02:13:14;;;;;;;62.75;44.65;;;;;;;;;;5028406;28;20116;-60
2023/11/08 02:15:41;;;;;;;64.57;44.00;;;;;;;;;;5029332;28;20060;-60
2023/11/08 02:18:07;;;;;;;59.40;42.30;;;;;;;;;;5013834;28;20033;-60
2023/11/08 02:20:34;;;;;;;62.53;45.42;;;;;;;;;;5016864;28;20063;-60
2023/11/08 02:23:00;;;;;;;57.40;42.42;;;;;;;;;;5041527;28;20021;-60
2023/11/08 02:25:26;;;;;;;66.75;44.65;;;;;;;;;;5030577;28;20582;-60
2023/11/08 02:27:52;;;;;;;63.45;45.83;;;;;;;;;;5038101;28;20025;-60
2023/11/08 02:30:18;;;;;;;71.40;48.40;;;;;;;;;;5047703;28;20491;-60
2023/11/08 02:32:45;;;;;;;64.65;44.90;;;;;;;;;;5038061;28;20030;-60
2023/11/08 02:35:11;;;;;;;58.53;42.63;;;;;;;;;;4997442;28;20065;-60
2023/11/08 02:37:37;;;;;;;57.88;39.92;;;;;;;;;;5013803;28;20391;-60
2023/11/08 02:40:03;;;;;;;49.58;36.95;;;;;;;;;;5038466;28;20024;-60
2023/11/08 02:42:30;;;;;;;54.22;37.95;;;;;;;;;;5017996;28;20029;-60
2023/11/08 02:44:56;;;;;;;57.00;40.27;;;;;;;;;;5014667;28;20024;-60
2023/11/08 02:47:22;;;;;;;60.72;41.15;;;;;;;;;;5031796;28;20705;-60
2023/11/08 02:49:49;;;;;;;53.20;37.00;;;;;;;;;;5022872;28;20080;-60
2023/11/08 02:52:16;;;;;;;55.67;38.85;;;;;;;;;;5023896;28;20306;-60
2023/11/08 02:54:42;;;;;;;53.00;37.55;;;;;;;;;;5050542;28;20025;-60
2023/11/08 02:57:09;;;;;;;52.30;36.33;;;;;;;;;;5031547;28;20033;-60
2023/11/08 02:59:36;;;;;;;51.50;36.97;;;;;;;;;;5032957;28;20025;-60
2023/11/08 03:02:02;;;;;;;;;;;;;;;;;;5033565;28;20037;-60
2023/11/08 03:04:31;;;;;;;48.15;35.05;;;;;;;;;;5024348;28;20409;-60
2023/11/08 03:06:57;;;;;;;47.50;34.60;;;;;;;;;;5031426;28;20076;-60
2023/11/08 03:09:24;;;;;;;49.30;34.40;;;;;;;;;;5054776;28;20120;-60
2023/11/08 03:11:50;;;;;;;47.63;32.60;;;;;;;;;;5022964;28;20024;-60
2023/11/08 03:14:17;;;;;;;45.67;33.80;;;;;;;;;;5030991;28;20024;-60
2023/11/08 03:16:43;;;;;;;52.17;36.85;;;;;;;;;;5056207;28;20029;-60
2023/11/08 03:19:10;;;;;;;48.78;34.55;;;;;;;;;;5074610;28;20094;-60
2023/11/08 03:21:37;;;;;;;51.78;34.90;;;;;;;;;;5056653;28;20310;-60
2023/11/08 03:24:04;;;;;;;43.80;33.75;;;;;;;;;;5039997;28;20490;-60
2023/11/08 03:26:33;;;;;;;43.50;30.08;;;;;;;;;;5074754;28;20040;-60
2023/11/08 03:28:59;;;;;;;42.10;31.02;;;;;;;;;;5072413;28;20033;-60
2023/11/08 03:31:25;;;;;;;46.23;33.73;;;;;;;;;;5054479;28;20032;-60
2023/11/08 03:33:51;;;;;;;47.95;32.90;;;;;;;;;;5054499;28;20048;-60
2023/11/08 03:36:17;;;;;;;43.55;31.42;;;;;;;;;;5054512;28;20072;-58
2023/11/08 03:38:44;;;;;;;47.05;33.33;;;;;;;;;;5054377;28;20029;-59
2023/11/08 03:41:10;;;;;;;48.10;32.08;;;;;;;;;;5054261;28;20039;-60
2023/11/08 03:43:37;;;;;;;42.10;29.38;;;;;;;;;;5048217;28;20476;-59
2023/11/08 03:46:04;;;;;;;42.90;29.02;;;;;;;;;;5046754;28;20072;-60
2023/11/08 03:48:31;;;;;;;49.93;36.77;;;;;;;;;;5035319;28;20060;-60
2023/11/08 03:50:57;;;;;;;38.67;26.92;;;;;;;;;;5044570;28;20610;-60
2023/11/08 03:53:23;;;;;;;37.15;28.27;;;;;;;;;;5050539;28;20025;-59
2023/11/08 03:55:50;;;;;;;42.38;29.83;;;;;;;;;;5035554;28;20388;-60
2023/11/08 03:58:17;;;;;;;42.90;28.67;;;;;;;;;;5016501;28;20065;-60
2023/11/08 04:00:43;;;;;;;43.35;29.05;;;;;;;;;;5044643;28;20101;-60
2023/11/08 04:03:09;;;;;;;38.92;27.30;;;;;;;;;;5034952;28;20064;-60
2023/11/08 04:05:35;;;;;;;39.15;28.38;;;;;;;;;;5033893;28;20037;-60
2023/11/08 04:08:03;;;;;;;43.33;30.77;;;;;;;;;;5033919;28;20029;-60
2023/11/08 04:10:30;;;;;;;40.90;28.15;;;;;;;;;;5027617;28;20100;-60
2023/11/08 04:12:56;;;;;;;41.97;30.27;;;;;;;;;;5053460;28;20025;-60
2023/11/08 04:15:22;;;;;;;42.47;27.60;;;;;;;;;;5050964;28;20200;-59
2023/11/08 04:17:48;;;;;;;35.70;28.90;;;;;;;;;;5043996;28;20040;-58
2023/11/08 04:20:15;;;;;;;34.08;24.00;;;;;;;;;;5036370;28;20410;-60
2023/11/08 04:22:42;;;;;;;38.92;26.92;;;;;;;;;;5041737;28;20024;-59
2023/11/08 04:25:11;;;;;;;43.88;25.77;;;;;;;;;;5033527;28;20060;-60
2023/11/08 04:27:38;;;;;;;44.95;30.85;;;;;;;;;;5033499;28;20022;-63
2023/11/08 04:30:04;;;;;;;38.33;28.38;;;;;;;;;;5015803;28;20033;-59
2023/11/08 04:32:31;;;;;;;41.13;29.65;;;;;;;;;;5033122;28;20036;-57
2023/11/08 04:34:57;;;;;;;39.28;27.27;;;;;;;;;;5033506;28;20117;-60
2023/11/08 04:37:23;;;;;;;40.13;29.42;;;;;;;;;;5047573;28;20424;-58
2023/11/08 04:39:51;;;;;;;42.47;29.07;;;;;;;;;;5033548;28;20029;-58
2023/11/08 04:42:17;;;;;;;63.22;28.77;;;;;;;;;;5033174;28;20029;-57
2023/11/08 04:44:47;;;;;;;34.50;22.52;;;;;;;;;;5036980;28;20040;-60
2023/11/08 04:47:20;;;;;;;49.25;27.83;;;;;;;;;;5039737;28;20029;-58
2023/11/08 04:49:47;;;;;;;102.20;36.63;;;;;;;;;;5035414;28;20026;-57
2023/11/08 04:52:14;;;;;;;84.15;33.58;;;;;;;;;;5032991;28;20104;-54
2023/11/08 04:54:40;;;;;;;115.80;33.88;;;;;;;;;;5029665;28;20509;-57
2023/11/08 04:57:06;;;;;;;74.65;30.52;;;;;;;;;;5052855;28;20028;-59
2023/11/08 04:59:33;;;;;;;93.35;31.70;;;;;;;;;;5050573;28;20036;-62
2023/11/08 05:02:00;;;;;;;87.38;33.15;;;;;;;;;;5027025;28;20025;-59
2023/11/08 05:04:27;;;;;;;55.13;31.13;;;;;;;;;;5014509;28;20053;-58
2023/11/08 05:06:53;;;;;;;;;;;;;;;;;;5015532;28;20026;-59
2023/11/08 05:09:19;;;;;;;82.95;30.00;;;;;;;;;;5014998;28;19913;-60
2023/11/08 05:11:46;;;;;;;73.45;34.35;;;;;;;;;;5032530;28;20044;-59
2023/11/08 05:14:12;;;;;;;59.50;32.00;;;;;;;;;;5032817;28;20021;-60
2023/11/08 05:16:39;;;;;;;52.75;32.75;;;;;;;;;;5015268;28;20430;-61
2023/11/08 05:19:08;;;;;;;;;;;;;;;;;;5033014;28;20037;-59
2023/11/08 05:21:34;;;;;;;44.45;28.40;;;;;;;;;;5032536;28;19931;-60
2023/11/08 05:24:00;;;;;;;42.30;29.15;;;;;;;;;;5014797;28;20081;-61
2023/11/08 05:26:26;;;;;;;39.83;28.88;;;;;;;;;;5032370;28;20313;-58
2023/11/08 05:28:52;;;;;;;43.05;28.80;;;;;;;;;;5032437;28;20503;-60
2023/11/08 05:31:19;;;;;;;43.63;30.25;;;;;;;;;;5032230;28;20021;-59
2023/11/08 05:33:45;;;;;;;40.45;29.92;;;;;;;;;;5032648;28;20435;-59
2023/11/08 05:36:11;;;;;;;42.97;29.35;;;;;;;;;;5032591;28;20108;-58
2023/11/08 05:38:39;;;;;;;44.35;29.35;;;;;;;;;;5032130;28;20021;-59
2023/11/08 05:41:06;;;;;;;44.92;32.30;;;;;;;;;;4997957;28;20034;-56
2023/11/08 05:43:32;;;;;;;44.15;28.92;;;;;;;;;;5032788;28;20022;-60
2023/11/08 05:45:58;;;;;;;50.95;32.95;;;;;;;;;;5032222;28;20124;-59
2023/11/08 05:48:24;;;;;;;43.92;31.70;;;;;;;;;;5014664;28;20430;-58
2023/11/08 05:50:50;;;;;;;47.90;32.15;;;;;;;;;;5014243;28;20053;-57
2023/11/08 05:53:17;;;;;;;47.25;30.27;;;;;;;;;;5031991;28;20022;-58
2023/11/08 05:55:43;;;;;;;44.53;32.40;;;;;;;;;;5031994;28;20042;-61
2023/11/08 05:58:09;;;;;;;43.50;30.67;;;;;;;;;;5031946;28;20483;-60
2023/11/08 06:00:35;;;;;;;44.67;29.42;;;;;;;;;;5014134;28;20029;-62
2023/11/08 06:03:01;;;;;;;40.85;29.52;;;;;;;;;;5014377;28;20510;-61
2023/11/08 06:05:28;;;;;;;42.83;29.60;;;;;;;;;;5014048;28;20224;-56
2023/11/08 06:07:56;;;;;;;38.83;28.52;;;;;;;;;;5031688;28;20038;-61
2023/11/08 06:10:22;;;;;;;39.25;28.77;;;;;;;;;;5031801;28;20029;-58
2023/11/08 06:12:49;;;;;;;47.92;28.90;;;;;;;;;;5031637;28;20108;-59
2023/11/08 06:15:16;;;;;;;39.30;27.55;;;;;;;;;;5031808;28;20029;-60
2023/11/08 06:17:42;;;;;;;43.63;27.75;;;;;;;;;;5013732;28;20064;-59
2023/11/08 06:20:09;;;;;;;36.75;24.25;;;;;;;;;;5013903;28;20442;-61
2023/11/08 06:22:35;;;;;;;39.55;25.00;;;;;;;;;;5013661;28;20116;-60
2023/11/08 06:25:02;;;;;;;37.95;26.13;;;;;;;;;;5014002;28;20559;-59
2023/11/08 06:27:28;;;;;;;39.33;28.35;;;;;;;;;;5031704;28;20472;-60
2023/11/08 06:29:54;;;;;;;37.53;27.23;;;;;;;;;;5013965;28;20029;-59
2023/11/08 06:32:20;;;;;;;35.40;26.60;;;;;;;;;;5013686;28;20029;-60
2023/11/08 06:34:49;;;;;;;37.90;27.30;;;;;;;;;;5031492;28;20088;-59
2023/11/08 06:37:15;;;;;;;38.13;26.83;;;;;;;;;;5016281;28;20116;-60
2023/11/08 06:39:42;;;;;;;34.92;25.30;;;;;;;;;;5017776;28;20650;-61
2023/11/08 06:42:08;;;;;;;35.75;24.77;;;;;;;;;;5017678;28;20041;-58
2023/11/08 06:44:35;;;;;;;34.30;24.97;;;;;;;;;;5018011;28;20120;-60
2023/11/08 06:47:01;;;;;;;37.03;26.85;;;;;;;;;;5035516;28;20033;-58
2023/11/08 06:49:27;;;;;;;37.63;27.67;;;;;;;;;;5035342;28;20024;-58
2023/11/08 06:51:53;;;;;;;39.33;28.38;;;;;;;;;;5001083;28;20021;-58
2023/11/08 06:54:20;;;;;;;37.63;27.33;;;;;;;;;;5035412;28;20029;-58
2023/11/08 06:56:46;;;;;;;41.92;29.30;;;;;;;;;;5035450;28;20112;-61
2023/11/08 06:59:12;;;;;;;42.33;26.98;;;;;;;;;;5035266;28;20029;-60
2023/11/08 07:01:39;;;;;;;36.88;28.13;;;;;;;;;;5035044;28;20021;-60
2023/11/08 07:04:05;;;;;;;42.20;28.20;;;;;;;;;;5017324;28;20033;-60
2023/11/08 07:06:31;;;;;;;35.95;27.05;;;;;;;;;;5017285;28;20026;-60
2023/11/08 07:08:58;;;;;;;41.03;28.20;;;;;;;;;;5001108;28;20026;-61
2023/11/08 07:11:26;;;;;;;37.58;27.90;;;;;;;;;;5034975;28;20500;-59
2023/11/08 07:13:52;;;;;;;43.65;29.23;;;;;;;;;;5035078;28;20105;-61
2023/11/08 07:16:18;;;;;;;35.35;26.73;;;;;;;;;;5034969;28;20076;-59
2023/11/08 07:18:48;;;;;;;32.13;25.40;;;;;;;;;;5034723;28;20041;-62
2023/11/08 07:21:20;;;;;;;32.58;24.85;;;;;;;;;;5034695;28;20057;-60
2023/11/08 07:23:47;;;;;;;35.30;25.55;;;;;;;;;;5017101;28;20029;-59
2023/11/08 07:26:16;;;;;;;32.33;24.58;;;;;;;;;;5034787;28;20037;-61
2023/11/08 07:28:46;;;;;;;33.67;24.23;;;;;;;;;;5000555;28;20026;-62
2023/11/08 07:31:13;;;;;;;29.27;21.92;;;;;;;;;;5000190;28;20026;-60
2023/11/08 07:33:40;;;;;;;31.48;22.15;;;;;;;;;;5034904;28;20075;-61
2023/11/08 07:36:06;;;;;;;29.58;22.05;;;;;;;;;;5034703;28;20031;-60
2023/11/08 07:38:33;;;;;;;30.48;21.73;;;;;;;;;;5000548;28;20051;-58
2023/11/08 07:41:01;;;;;;;25.35;20.20;;;;;;;;;;5016861;28;20086;-59
2023/11/08 07:43:27;;;;;;;27.25;22.42;;;;;;;;;;5016834;28;20033;-61
2023/11/08 07:45:54;;;;;;;31.25;23.67;;;;;;;;;;5016574;28;20061;-59
2023/11/08 07:48:20;;;;;;;27.23;21.35;;;;;;;;;;5033951;28;20060;-59
2023/11/08 07:50:46;;;;;;;29.80;21.02;;;;;;;;;;5016601;28;20567;-60
2023/11/08 07:53:12;;;;;;;28.48;20.20;;;;;;;;;;5034368;28;20391;-62
2023/11/08 07:55:38;;;;;;;28.23;19.88;;;;;;;;;;5016546;28;20119;-59
2023/11/08 07:58:06;;;;;;;29.40;21.05;;;;;;;;;;5034160;28;20033;-58
2023/11/08 08:00:33;;;;;;;30.50;20.90;;;;;;;;;;5016186;28;20095;-60
2023/11/08 08:02:59;;;;;;;32.20;22.42;;;;;;;;;;5034140;28;20153;-57
2023/11/08 08:05:25;;;;;;;27.27;21.02;;;;;;;;;;5016264;28;20128;-60
2023/11/08 08:07:51;;;;;;;27.85;21.23;;;;;;;;;;5016240;28;20586;-61
2023/11/08 08:10:18;;;;;;;26.45;21.38;;;;;;;;;;4999999;28;20037;-61
2023/11/08 08:12:44;;;;;;;25.77;19.92;;;;;;;;;;5033718;28;20132;-61
2023/11/08 08:15:11;;;;;;;32.08;21.58;;;;;;;;;;5033772;28;20037;-61
2023/11/08 08:17:37;;;;;;;31.25;21.23;;;;;;;;;;4999666;28;20033;-57
2023/11/08 08:20:04;;;;;;;26.20;19.30;;;;;;;;;;5033913;28;20450;-62
2023/11/08 08:22:31;;;;;;;24.02;18.27;;;;;;;;;;5015819;28;20033;-57
2023/11/08 08:24:59;;;;;;;21.98;19.05;;;;;;;;;;5015943;28;20029;-60
2023/11/08 08:27:25;;;;;;;24.05;17.80;;;;;;;;;;5033386;28;20055;-61
2023/11/08 08:29:52;;;;;;;21.42;16.60;;;;;;;;;;5015976;28;20121;-60
2023/11/08 08:32:18;;;;;;;17.50;14.50;;;;;;;;;;5015776;28;20032;-56
2023/11/08 08:34:44;;;;;;;18.60;15.70;;;;;;;;;;5016128;28;20052;-57
2023/11/08 08:37:11;;;;;;;20.03;15.73;;;;;;;;;;5015751;28;20112;-57
2023/11/08 08:39:37;;;;;;;20.70;14.10;;;;;;;;;;5033499;28;20152;-58
2023/11/08 08:42:06;;;;;;;18.85;14.77;;;;;;;;;;5033203;28;20488;-60
2023/11/08 08:44:35;;;;;;;16.15;13.23;;;;;;;;;;5015680;28;20236;-55
2023/11/08 08:47:01;;;;;;;24.65;14.00;;;;;;;;;;5015601;28;20480;-58
2023/11/08 08:49:27;;;;;;;22.52;14.55;;;;;;;;;;4999351;28;20079;-60
2023/11/08 08:51:54;;;;;;;18.17;14.02;;;;;;;;;;5033013;28;20030;-60
2023/11/08 08:54:20;;;;;;;18.73;15.23;;;;;;;;;;5015383;28;20032;-60
2023/11/08 08:56:47;;;;;;;16.52;14.27;;;;;;;;;;5015308;28;20095;-61
2023/11/08 08:59:13;;;;;;;19.90;14.68;;;;;;;;;;5032177;28;20112;-59
2023/11/08 09:01:40;;;;;;;14.43;12.82;;;;;;;;;;5032863;28;20165;-57
2023/11/08 09:04:06;;;;;;;15.18;12.65;;;;;;;;;;5032989;28;20029;-60
2023/11/08 09:06:32;;;;;;;18.50;13.90;;;;;;;;;;5032888;28;20476;-61
2023/11/08 09:08:58;;;;;;;22.48;14.30;;;;;;;;;;5032804;28;20096;-56
2023/11/08 09:11:24;;;;;;;19.95;15.07;;;;;;;;;;5032578;28;20033;-60
2023/11/08 09:13:51;;;;;;;25.77;17.27;;;;;;;;;;5015104;28;20025;-62
2023/11/08 09:16:17;;;;;;;19.95;15.35;;;;;;;;;;5032705;28;20030;-60
2023/11/08 09:18:44;;;;;;;18.83;14.68;;;;;;;;;;5032811;28;20126;-60
2023/11/08 09:21:10;;;;;;;;;;;;;;;;;;5032928;28;20029;-61
2023/11/08 09:23:39;;;;;;;18.65;14.57;;;;;;;;;;5032575;28;19955;-61
2023/11/08 09:26:05;;;;;;;14.95;13.32;;;;;;;;;;5032353;28;20034;-60
2023/11/08 09:28:31;;;;;;;17.75;13.30;;;;;;;;;;5032443;28;20025;-61
2023/11/08 09:30:58;;;;;;;18.27;14.50;;;;;;;;;;4998283;28;20399;-62
2023/11/08 09:33:24;;;;;;;19.58;13.40;;;;;;;;;;5032923;28;20026;-60
2023/11/08 09:35:51;;;;;;;18.20;13.93;;;;;;;;;;5032497;28;20041;-59
2023/11/08 09:38:17;;;;;;;;;;;;;;;;;;5032516;28;20029;-62
2023/11/08 09:40:44;;;;;;;16.30;12.50;;;;;;;;;;5032000;28;20363;-62
2023/11/08 09:43:10;;;;;;;16.23;13.45;;;;;;;;;;5014611;28;20148;-62
2023/11/08 09:45:37;;;;;;;17.42;13.05;;;;;;;;;;5032322;28;20472;-60
2023/11/08 09:48:05;;;;;;;15.27;13.02;;;;;;;;;;5031996;28;20618;-61
2023/11/08 09:50:32;;;;;;;16.63;13.50;;;;;;;;;;5014343;28;20365;-60
2023/11/08 09:52:58;;;;;;;16.95;14.32;;;;;;;;;;5031917;28;20025;-61
2023/11/08 09:55:26;;;;;;;17.60;13.27;;;;;;;;;;5014452;28;20041;-61
2023/11/08 09:57:55;;;;;;;25.52;14.10;;;;;;;;;;4998261;28;20060;-58
2023/11/08 10:00:21;;;;;;;;;;;;;;;;;;5032455;28;20030;-62
2023/11/08 10:02:47;;;;;;;22.00;14.52;;;;;;;;;;5014115;28;19916;-61
2023/11/08 10:05:14;;;;;;;16.90;14.13;;;;;;;;;;5031848;28;20036;-62
2023/11/08 10:07:41;;;;;;;17.57;13.23;;;;;;;;;;4997614;28;20522;-62
2023/11/08 10:10:07;;;;;;;18.08;13.70;;;;;;;;;;4997815;28;20025;-57
2023/11/08 10:12:33;;;;;;;17.88;13.45;;;;;;;;;;5031853;28;20033;-54
2023/11/08 10:15:06;;;;;;;19.13;14.70;;;;;;;;;;5014233;28;20039;-61
2023/11/08 10:17:40;;;;;;;15.98;13.07;;;;;;;;;;5031714;28;20037;-59
2023/11/08 10:20:11;;;;;;;17.27;13.90;;;;;;;;;;5032132;28;20419;-61
2023/11/08 10:22:37;;;;;;;13.73;11.95;;;;;;;;;;5031505;28;20057;-58
2023/11/08 10:25:04;;;;;;;16.05;12.88;;;;;;;;;;5014217;28;20037;-59
2023/11/08 10:27:32;;;;;;;15.60;12.98;;;;;;;;;;5031559;28;20027;-58
2023/11/08 10:30:21;;;;;;;13.55;11.07;;;;;;;;;;5014032;28;20107;-60
2023/11/08 10:32:48;;;;;;;17.05;13.77;;;;;;;;;;5031300;28;20030;-59
2023/11/08 10:35:21;;;;;;;15.60;13.43;;;;;;;;;;5031631;28;20038;-60
2023/11/08 10:37:50;;;;;;;14.13;12.68;;;;;;;;;;5031513;28;20029;-61
2023/11/08 10:40:17;;;;;;;18.15;13.55;;;;;;;;;;5031464;28;20033;-61
2023/11/08 10:42:55;;;;;;;15.93;13.82;;;;;;;;;;5013597;28;20021;-60
2023/11/08 10:45:22;;;;;;;16.50;11.90;;;;;;;;;;5013652;28;20026;-58
2023/11/08 10:47:49;;;;;;;14.65;11.50;;;;;;;;;;5031330;28;20538;-62
2023/11/08 10:50:16;;;;;;;15.10;13.03;;;;;;;;;;5031383;28;20025;-58
2023/11/08 10:52:42;;;;;;;15.40;12.73;;;;;;;;;;5013525;28;20256;-59
2023/11/08 10:55:09;;;;;;;11.38;10.18;;;;;;;;;;5013564;28;20036;-61
2023/11/08 10:57:36;;;;;;;12.13;10.85;;;;;;;;;;5013414;28;20042;-56
2023/11/08 11:00:07;;;;;;;12.93;9.45;;;;;;;;;;5013604;28;20111;-60
2023/11/08 11:02:45;;;;;;;14.25;10.27;;;;;;;;;;5031132;28;20026;-60
2023/11/08 11:05:13;;;;;;;11.40;9.95;;;;;;;;;;5013629;28;20025;-60
2023/11/08 11:07:42;;;;;;;14.55;10.23;;;;;;;;;;5013470;28;20033;-60
2023/11/08 11:10:09;;;;;;;13.65;10.05;;;;;;;;;;5031050;28;20056;-60
2023/11/08 11:12:48;;;;;;;12.27;10.98;;;;;;;;;;5036185;28;20487;-60
2023/11/08 11:15:21;;;;;;;9.82;8.32;;;;;;;;;;5043629;28;20037;-59
2023/11/08 11:17:55;;;;;;;10.15;9.07;;;;;;;;;;5032150;28;20029;-59
2023/11/08 11:20:22;;;;;;;10.98;9.35;;;;;;;;;;5019337;28;20040;-62
2023/11/08 11:22:48;;;;;;;12.48;9.43;;;;;;;;;;5038548;28;20025;-61
2023/11/08 11:25:15;;;;;;;;;;;;;;;;;;5036700;28;20080;-61
2023/11/08 11:27:42;;;;;;;13.45;8.82;;;;;;;;;;5054644;28;20007;-61
2023/11/08 11:30:16;;;;;;;9.95;8.65;;;;;;;;;;5053686;28;20032;-61
2023/11/08 11:32:46;;;;;;;14.90;9.63;;;;;;;;;;5052207;28;20036;-61
2023/11/08 11:35:15;;;;;;;12.77;9.88;;;;;;;;;;5052845;28;20029;-58
2023/11/08 11:37:41;;;;;;;10.05;8.73;;;;;;;;;;5030882;28;20451;-56
2023/11/08 11:40:14;;;;;;;12.93;9.63;;;;;;;;;;5020400;28;20037;-59
2023/11/08 11:42:43;;;;;;;12.50;8.40;;;;;;;;;;5021782;28;20132;-61
2023/11/08 11:45:12;;;;;;;12.18;9.55;;;;;;;;;;5030823;28;20114;-60
2023/11/08 11:47:41;;;;;;;11.43;9.20;;;;;;;;;;5052559;28;20021;-60
2023/11/08 11:50:09;;;;;;;12.27;8.35;;;;;;;;;;5041859;28;20025;-59
2023/11/08 11:52:38;;;;;;;10.68;8.27;;;;;;;;;;5018383;28;20025;-59
2023/11/08 11:55:08;;;;;;;10.10;8.10;;;;;;;;;;5016085;28;20447;-59
2023/11/08 11:57:36;;;;;;;10.20;7.05;;;;;;;;;;5040856;28;20132;-63
2023/11/08 12:00:09;;;;;;;10.90;7.90;;;;;;;;;;5048655;28;20108;-61
2023/11/08 12:02:41;;;;;;;9.77;7.75;;;;;;;;;;5016419;28;20037;-59
2023/11/08 12:05:10;;;;;;;10.70;8.00;;;;;;;;;;5031127;28;20530;-59
2023/11/08 12:07:38;;;;;;;14.93;6.80;;;;;;;;;;5051540;28;20025;-60
2023/11/08 12:10:10;;;;;;;10.23;7.25;;;;;;;;;;5024278;28;20025;-59
2023/11/08 12:12:38;;;;;;;8.25;6.43;;;;;;;;;;5049306;28;20094;-61
2023/11/08 12:15:20;;;;;;;8.68;6.47;;;;;;;;;;5034391;28;20553;-58
2023/11/08 12:17:48;;;;;;;8.93;7.03;;;;;;;;;;5030821;28;20108;-61
2023/11/08 12:20:14;;;;;;;;;;;;;;;;;;5030095;28;20400;-62
2023/11/08 12:22:46;;;;;;;7.25;5.90;;;;;;;;;;5031670;28;20095;-60
2023/11/08 12:25:13;;;;;;;9.07;6.63;;;;;;;;;;5025844;28;20051;-59
2023/11/08 12:27:41;;;;;;;7.10;5.43;;;;;;;;;;5049223;28;20192;-62
2023/11/08 12:30:11;;;;;;;7.55;6.03;;;;;;;;;;5032368;28;20480;-63
2023/11/08 12:32:40;;;;;;;9.77;6.93;;;;;;;;;;5041944;28;20028;-63
2023/11/08 12:35:06;;;;;;;7.93;6.77;;;;;;;;;;5050453;28;20487;-60
2023/11/08 12:37:33;;;;;;;8.25;7.18;;;;;;;;;;5026008;28;20451;-63
2023/11/08 12:40:18;;;;;;;6.45;5.45;;;;;;;;;;5015978;28;20107;-63
2023/11/08 12:42:44;;;;;;;7.35;6.18;;;;;;;;;;5047981;28;20035;-61
2023/11/08 12:45:11;;;;;;;8.90;7.00;;;;;;;;;;5048550;28;20057;-63
2023/11/08 12:47:37;;;;;;;9.07;7.60;;;;;;;;;;5034744;28;20099;-61
2023/11/08 12:50:13;;;;;;;8.13;6.57;;;;;;;;;;5037825;28;20384;-60
2023/11/08 12:52:39;;;;;;;7.00;6.32;;;;;;;;;;5053078;28;20040;-60
2023/11/08 12:55:06;;;;;;;8.40;6.55;;;;;;;;;;5038363;28;20056;-60
2023/11/08 12:57:32;;;;;;;7.85;6.03;;;;;;;;;;5046551;28;20517;-60
2023/11/08 12:59:59;;;;;;;6.75;5.60;;;;;;;;;;5050629;28;20047;-61
2023/11/08 13:02:25;;;;;;;6.40;5.03;;;;;;;;;;5051874;28;20111;-60
2023/11/08 13:04:51;;;;;;;6.70;5.20;;;;;;;;;;5049290;28;20518;-59
2023/11/08 13:07:18;;;;;;;7.45;5.90;;;;;;;;;;5016677;28;20434;-61
2023/11/08 13:09:44;;;;;;;;;;;;;;;;;;5051217;28;20112;-58
2023/11/08 13:12:13;;;;;;;6.60;5.90;;;;;;;;;;5040558;28;19908;-60
2023/11/08 13:14:47;;;;;;;7.97;6.68;;;;;;;;;;4999868;28;20083;-61
2023/11/08 13:17:14;;;;;;;7.45;5.70;;;;;;;;;;5050265;28;20025;-61
2023/11/08 13:19:40;;;;;;;6.00;5.35;;;;;;;;;;5015463;28;20061;-60
2023/11/08 13:22:06;;;;;;;6.40;5.68;;;;;;;;;;5048401;28;20394;-60
2023/11/08 13:24:33;;;;;;;9.65;5.90;;;;;;;;;;5059699;28;20025;-60
2023/11/08 13:26:59;;;;;;;7.32;5.90;;;;;;;;;;5072373;28;20560;-60
2023/11/08 13:29:26;;;;;;;6.72;5.53;;;;;;;;;;5056279;28;20112;-60
2023/11/08 13:31:53;;;;;;;5.72;5.18;;;;;;;;;;5047500;28;20029;-61
2023/11/08 13:34:19;;;;;;;6.30;4.97;;;;;;;;;;5014703;28;20033;-62
2023/11/08 13:36:46;;;;;;;6.03;5.13;;;;;;;;;;5035512;28;20037;-61
2023/11/08 13:39:12;;;;;;;6.32;5.72;;;;;;;;;;5050408;28;20040;-61
2023/11/08 13:41:38;;;;;;;14.05;6.80;;;;;;;;;;5018720;28;20037;-60
2023/11/08 13:44:05;;;;;;;11.35;7.00;;;;;;;;;;5040835;28;20037;-61
2023/11/08 13:46:31;;;;;;;7.03;6.30;;;;;;;;;;5031571;28;20064;-60
2023/11/08 13:48:58;;;;;;;9.73;7.10;;;;;;;;;;5031960;28;20049;-60
2023/11/08 13:51:24;;;;;;;7.55;6.35;;;;;;;;;;5014169;28;20048;-60
2023/11/08 13:53:51;;;;;;;7.38;5.38;;;;;;;;;;5032203;28;20033;-60
2023/11/08 13:56:17;;;;;;;8.75;5.75;;;;;;;;;;4998042;28;20033;-59
2023/11/08 13:58:47;;;;;;;7.80;6.00;;;;;;;;;;5031882;28;20030;-60
2023/11/08 14:01:16;;;;;;;7.18;6.32;;;;;;;;;;5032042;28;20483;-60
2023/11/08 14:03:42;;;;;;;7.53;6.03;;;;;;;;;;5031849;28;20033;-60
2023/11/08 14:06:10;;;;;;;7.03;6.32;;;;;;;;;;5032626;28;20041;-60
2023/11/08 14:08:37;;;;;;;8.57;6.75;;;;;;;;;;5014093;28;20448;-59
2023/11/08 14:11:03;;;;;;;8.95;6.78;;;;;;;;;;5024444;28;20029;-59
2023/11/08 14:13:29;;;;;;;8.88;7.00;;;;;;;;;;5031736;28;20064;-60
2023/11/08 14:15:55;;;;;;;6.47;5.65;;;;;;;;;;5038643;28;20587;-60
2023/11/08 14:18:22;;;;;;;7.57;6.50;;;;;;;;;;5037585;28;20499;-60
2023/11/08 14:20:48;;;;;;;9.10;6.00;;;;;;;;;;5059527;28;20025;-57
2023/11/08 14:23:14;;;;;;;6.35;5.43;;;;;;;;;;5051588;28;20036;-60
2023/11/08 14:25:41;;;;;;;10.30;6.43;;;;;;;;;;5042182;28;20032;-60